sensor_id;sensor_type;location;lat;lon;timestamp;P1;durP1;ratioP1;P2;durP2;ratioP2
53833;SDS011;39735;51.432;5.482;2023-02-28T00:02:15;12.60;;;7.93;;
53833;SDS011;39735;51.432;5.482;2023-02-28T00:04:42;15.20;;;8.30;;
53833;SDS011;39735;51.432;5.482;2023-02-28T00:07:08;14.00;;;8.95;;
53833;SDS011;39735;51.432;5.482;2023-02-28T00:09:35;13.90;;;7.40;;
53833;SDS011;39735;51.432;5.482;2023-02-28T00:12:00;17.45;;;8.82;;
53833;SDS011;39735;51.432;5.482;2023-02-28T00:14:34;16.35;;;7.68;;
53833;SDS011;39735;51.432;5.482;2023-02-28T00:17:00;17.88;;;8.55;;
53833;SDS011;39735;51.432;5.482;2023-02-28T00:19:25;14.75;;;8.98;;
53833;SDS011;39735;51.432;5.482;2023-02-28T00:21:51;15.35;;;8.85;;
53833;SDS011;39735;51.432;5.482;2023-02-28T00:24:16;21.05;;;8.75;;
53833;SDS011;39735;51.432;5.482;2023-02-28T00:26:42;12.00;;;8.45;;
53833;SDS011;39735;51.432;5.482;2023-02-28T00:29:07;21.52;;;7.13;;
53833;SDS011;39735;51.432;5.482;2023-02-28T00:31:32;22.42;;;9.38;;
53833;SDS011;39735;51.432;5.482;2023-02-28T00:33:58;14.57;;;7.75;;
53833;SDS011;39735;51.432;5.482;2023-02-28T00:36:23;21.35;;;8.23;;
53833;SDS011;39735;51.432;5.482;2023-02-28T00:38:48;13.02;;;8.70;;
53833;SDS011;39735;51.432;5.482;2023-02-28T00:41:14;22.05;;;9.82;;
53833;SDS011;39735;51.432;5.482;2023-02-28T00:43:39;28.88;;;10.15;;
53833;SDS011;39735;51.432;5.482;2023-02-28T00:46:05;23.27;;;10.02;;
53833;SDS011;39735;51.432;5.482;2023-02-28T00:48:31;26.42;;;9.30;;
53833;SDS011;39735;51.432;5.482;2023-02-28T00:50:56;8.98;;;8.02;;
53833;SDS011;39735;51.432;5.482;2023-02-28T00:53:22;16.50;;;7.70;;
53833;SDS011;39735;51.432;5.482;2023-02-28T00:55:48;13.55;;;9.70;;
53833;SDS011;39735;51.432;5.482;2023-02-28T00:58:14;20.67;;;9.25;;
53833;SDS011;39735;51.432;5.482;2023-02-28T01:00:39;14.65;;;9.32;;
53833;SDS011;39735;51.432;5.482;2023-02-28T01:03:05;14.80;;;9.07;;
53833;SDS011;39735;51.432;5.482;2023-02-28T01:05:30;29.27;;;7.97;;
53833;SDS011;39735;51.432;5.482;2023-02-28T01:07:55;22.20;;;8.88;;
53833;SDS011;39735;51.432;5.482;2023-02-28T01:10:21;11.32;;;8.10;;
53833;SDS011;39735;51.432;5.482;2023-02-28T01:12:46;30.48;;;10.27;;
53833;SDS011;39735;51.432;5.482;2023-02-28T01:15:11;17.17;;;10.10;;
53833;SDS011;39735;51.432;5.482;2023-02-28T01:17:37;24.60;;;8.75;;
53833;SDS011;39735;51.432;5.482;2023-02-28T01:20:02;25.70;;;9.18;;
53833;SDS011;39735;51.432;5.482;2023-02-28T01:22:28;15.57;;;8.90;;
53833;SDS011;39735;51.432;5.482;2023-02-28T01:24:53;14.25;;;9.38;;
53833;SDS011;39735;51.432;5.482;2023-02-28T01:27:19;15.13;;;9.25;;
53833;SDS011;39735;51.432;5.482;2023-02-28T01:29:45;10.95;;;8.80;;
53833;SDS011;39735;51.432;5.482;2023-02-28T01:32:11;28.38;;;9.52;;
53833;SDS011;39735;51.432;5.482;2023-02-28T01:34:36;13.75;;;8.45;;
53833;SDS011;39735;51.432;5.482;2023-02-28T01:37:02;19.20;;;9.30;;
53833;SDS011;39735;51.432;5.482;2023-02-28T01:39:28;20.30;;;8.18;;
53833;SDS011;39735;51.432;5.482;2023-02-28T01:41:54;28.75;;;12.05;;
53833;SDS011;39735;51.432;5.482;2023-02-28T01:47:18;14.52;;;9.73;;
53833;SDS011;39735;51.432;5.482;2023-02-28T01:49:44;17.63;;;9.60;;
53833;SDS011;39735;51.432;5.482;2023-02-28T01:52:09;19.33;;;8.45;;
53833;SDS011;39735;51.432;5.482;2023-02-28T01:54:39;17.10;;;11.73;;
53833;SDS011;39735;51.432;5.482;2023-02-28T01:57:15;18.20;;;8.65;;
53833;SDS011;39735;51.432;5.482;2023-02-28T01:59:47;25.48;;;9.18;;
53833;SDS011;39735;51.432;5.482;2023-02-28T02:02:16;12.98;;;8.93;;
53833;SDS011;39735;51.432;5.482;2023-02-28T02:04:48;15.15;;;7.82;;
53833;SDS011;39735;51.432;5.482;2023-02-28T02:07:16;13.70;;;10.32;;
53833;SDS011;39735;51.432;5.482;2023-02-28T02:09:42;12.18;;;9.98;;
53833;SDS011;39735;51.432;5.482;2023-02-28T02:12:11;17.25;;;8.90;;
53833;SDS011;39735;51.432;5.482;2023-02-28T02:15:01;19.25;;;10.32;;
53833;SDS011;39735;51.432;5.482;2023-02-28T02:23:03;20.50;;;10.35;;
53833;SDS011;39735;51.432;5.482;2023-02-28T02:34:22;21.27;;;8.60;;
53833;SDS011;39735;51.432;5.482;2023-02-28T02:36:52;18.77;;;9.43;;
53833;SDS011;39735;51.432;5.482;2023-02-28T02:39:28;18.08;;;8.70;;
53833;SDS011;39735;51.432;5.482;2023-02-28T02:41:59;25.10;;;8.07;;
53833;SDS011;39735;51.432;5.482;2023-02-28T02:44:28;18.98;;;9.30;;
53833;SDS011;39735;51.432;5.482;2023-02-28T02:47:04;23.20;;;8.63;;
53833;SDS011;39735;51.432;5.482;2023-02-28T02:49:32;15.85;;;9.40;;
53833;SDS011;39735;51.432;5.482;2023-02-28T02:52:01;12.93;;;8.48;;
53833;SDS011;39735;51.432;5.482;2023-02-28T02:54:30;12.82;;;8.45;;
53833;SDS011;39735;51.432;5.482;2023-02-28T02:56:59;14.30;;;7.72;;
53833;SDS011;39735;51.432;5.482;2023-02-28T02:59:26;25.45;;;9.98;;
53833;SDS011;39735;51.432;5.482;2023-02-28T03:01:54;19.17;;;9.07;;
53833;SDS011;39735;51.432;5.482;2023-02-28T03:04:23;16.50;;;7.95;;
53833;SDS011;39735;51.432;5.482;2023-02-28T03:06:50;25.05;;;9.93;;
53833;SDS011;39735;51.432;5.482;2023-02-28T03:09:20;17.10;;;7.47;;
53833;SDS011;39735;51.432;5.482;2023-02-28T03:11:46;9.95;;;7.68;;
53833;SDS011;39735;51.432;5.482;2023-02-28T03:14:26;10.77;;;8.07;;
53833;SDS011;39735;51.432;5.482;2023-02-28T03:20:16;19.58;;;7.43;;
53833;SDS011;39735;51.432;5.482;2023-02-28T03:25:52;13.73;;;8.68;;
53833;SDS011;39735;51.432;5.482;2023-02-28T03:31:15;11.82;;;7.65;;
53833;SDS011;39735;51.432;5.482;2023-02-28T03:33:51;17.30;;;8.38;;
53833;SDS011;39735;51.432;5.482;2023-02-28T03:36:39;18.08;;;9.45;;
53833;SDS011;39735;51.432;5.482;2023-02-28T03:39:11;17.58;;;6.93;;
53833;SDS011;39735;51.432;5.482;2023-02-28T03:41:42;12.10;;;7.90;;
53833;SDS011;39735;51.432;5.482;2023-02-28T03:44:16;20.17;;;10.68;;
53833;SDS011;39735;51.432;5.482;2023-02-28T03:46:57;25.17;;;8.20;;
53833;SDS011;39735;51.432;5.482;2023-02-28T03:49:33;14.75;;;8.45;;
53833;SDS011;39735;51.432;5.482;2023-02-28T03:52:02;13.18;;;9.48;;
53833;SDS011;39735;51.432;5.482;2023-02-28T03:54:33;25.27;;;9.48;;
53833;SDS011;39735;51.432;5.482;2023-02-28T03:57:10;16.80;;;8.48;;
53833;SDS011;39735;51.432;5.482;2023-02-28T03:59:45;23.52;;;7.82;;
53833;SDS011;39735;51.432;5.482;2023-02-28T04:02:13;12.65;;;7.55;;
53833;SDS011;39735;51.432;5.482;2023-02-28T04:04:38;15.95;;;7.55;;
53833;SDS011;39735;51.432;5.482;2023-02-28T04:07:07;12.60;;;7.43;;
53833;SDS011;39735;51.432;5.482;2023-02-28T04:09:33;12.15;;;7.60;;
53833;SDS011;39735;51.432;5.482;2023-02-28T04:11:59;15.52;;;8.40;;
53833;SDS011;39735;51.432;5.482;2023-02-28T04:14:24;16.38;;;6.78;;
53833;SDS011;39735;51.432;5.482;2023-02-28T04:16:50;13.15;;;7.85;;
53833;SDS011;39735;51.432;5.482;2023-02-28T04:19:18;13.23;;;7.53;;
53833;SDS011;39735;51.432;5.482;2023-02-28T04:21:46;9.38;;;6.82;;
53833;SDS011;39735;51.432;5.482;2023-02-28T04:24:16;13.43;;;6.88;;
53833;SDS011;39735;51.432;5.482;2023-02-28T04:26:47;9.80;;;6.70;;
53833;SDS011;39735;51.432;5.482;2023-02-28T04:29:15;12.80;;;7.63;;
53833;SDS011;39735;51.432;5.482;2023-02-28T04:31:44;29.50;;;7.68;;
53833;SDS011;39735;51.432;5.482;2023-02-28T04:34:09;12.38;;;7.00;;
53833;SDS011;39735;51.432;5.482;2023-02-28T04:36:35;21.95;;;8.07;;
53833;SDS011;39735;51.432;5.482;2023-02-28T04:39:00;15.10;;;7.72;;
53833;SDS011;39735;51.432;5.482;2023-02-28T04:41:25;13.65;;;5.10;;
53833;SDS011;39735;51.432;5.482;2023-02-28T04:43:51;9.85;;;5.72;;
53833;SDS011;39735;51.432;5.482;2023-02-28T04:46:17;10.50;;;6.68;;
53833;SDS011;39735;51.432;5.482;2023-02-28T04:48:43;18.67;;;6.70;;
53833;SDS011;39735;51.432;5.482;2023-02-28T04:51:10;21.10;;;8.10;;
53833;SDS011;39735;51.432;5.482;2023-02-28T04:53:36;14.35;;;6.90;;
53833;SDS011;39735;51.432;5.482;2023-02-28T04:56:03;19.90;;;6.32;;
53833;SDS011;39735;51.432;5.482;2023-02-28T04:58:29;11.27;;;6.18;;
53833;SDS011;39735;51.432;5.482;2023-02-28T05:01:00;14.40;;;7.97;;
53833;SDS011;39735;51.432;5.482;2023-02-28T05:03:28;18.40;;;7.47;;
53833;SDS011;39735;51.432;5.482;2023-02-28T05:05:53;26.38;;;6.82;;
53833;SDS011;39735;51.432;5.482;2023-02-28T05:08:18;12.38;;;8.32;;
53833;SDS011;39735;51.432;5.482;2023-02-28T05:10:44;13.93;;;6.03;;
53833;SDS011;39735;51.432;5.482;2023-02-28T05:13:11;11.88;;;6.20;;
53833;SDS011;39735;51.432;5.482;2023-02-28T05:15:37;21.48;;;6.60;;
53833;SDS011;39735;51.432;5.482;2023-02-28T05:18:02;26.10;;;8.82;;
53833;SDS011;39735;51.432;5.482;2023-02-28T05:20:28;9.73;;;7.38;;
53833;SDS011;39735;51.432;5.482;2023-02-28T05:22:53;12.82;;;7.85;;
53833;SDS011;39735;51.432;5.482;2023-02-28T05:25:19;12.75;;;8.18;;
53833;SDS011;39735;51.432;5.482;2023-02-28T05:27:46;14.57;;;8.93;;
53833;SDS011;39735;51.432;5.482;2023-02-28T05:30:12;11.75;;;7.10;;
53833;SDS011;39735;51.432;5.482;2023-02-28T05:32:38;14.90;;;7.45;;
53833;SDS011;39735;51.432;5.482;2023-02-28T05:35:04;7.85;;;6.35;;
53833;SDS011;39735;51.432;5.482;2023-02-28T05:37:30;12.15;;;6.93;;
53833;SDS011;39735;51.432;5.482;2023-02-28T05:39:55;40.70;;;7.38;;
53833;SDS011;39735;51.432;5.482;2023-02-28T05:42:21;11.93;;;6.13;;
53833;SDS011;39735;51.432;5.482;2023-02-28T05:44:46;7.97;;;5.55;;
53833;SDS011;39735;51.432;5.482;2023-02-28T05:47:12;10.48;;;6.45;;
53833;SDS011;39735;51.432;5.482;2023-02-28T05:49:40;16.27;;;5.93;;
53833;SDS011;39735;51.432;5.482;2023-02-28T05:52:06;20.42;;;5.93;;
53833;SDS011;39735;51.432;5.482;2023-02-28T05:54:31;12.55;;;6.38;;
53833;SDS011;39735;51.432;5.482;2023-02-28T05:56:56;13.77;;;7.15;;
53833;SDS011;39735;51.432;5.482;2023-02-28T05:59:22;13.85;;;8.45;;
53833;SDS011;39735;51.432;5.482;2023-02-28T06:01:47;12.50;;;7.28;;
53833;SDS011;39735;51.432;5.482;2023-02-28T06:04:13;13.75;;;8.18;;
53833;SDS011;39735;51.432;5.482;2023-02-28T06:06:42;29.40;;;7.80;;
53833;SDS011;39735;51.432;5.482;2023-02-28T06:09:08;11.90;;;6.63;;
53833;SDS011;39735;51.432;5.482;2023-02-28T06:11:34;9.80;;;6.30;;
53833;SDS011;39735;51.432;5.482;2023-02-28T06:13:59;11.30;;;6.80;;
53833;SDS011;39735;51.432;5.482;2023-02-28T06:16:29;16.38;;;7.60;;
53833;SDS011;39735;51.432;5.482;2023-02-28T06:18:59;9.68;;;6.90;;
53833;SDS011;39735;51.432;5.482;2023-02-28T06:21:26;12.27;;;6.40;;
53833;SDS011;39735;51.432;5.482;2023-02-28T06:23:55;10.90;;;7.60;;
53833;SDS011;39735;51.432;5.482;2023-02-28T06:26:21;7.85;;;7.07;;
53833;SDS011;39735;51.432;5.482;2023-02-28T06:28:47;23.40;;;7.53;;
53833;SDS011;39735;51.432;5.482;2023-02-28T06:31:14;10.75;;;6.40;;
53833;SDS011;39735;51.432;5.482;2023-02-28T06:33:41;9.93;;;6.65;;
53833;SDS011;39735;51.432;5.482;2023-02-28T06:36:07;20.63;;;7.53;;
53833;SDS011;39735;51.432;5.482;2023-02-28T06:38:35;10.10;;;5.40;;
53833;SDS011;39735;51.432;5.482;2023-02-28T06:41:01;20.05;;;7.88;;
53833;SDS011;39735;51.432;5.482;2023-02-28T06:43:28;12.95;;;5.75;;
53833;SDS011;39735;51.432;5.482;2023-02-28T06:45:56;28.60;;;6.38;;
53833;SDS011;39735;51.432;5.482;2023-02-28T06:48:22;14.27;;;6.22;;
53833;SDS011;39735;51.432;5.482;2023-02-28T06:50:48;19.73;;;7.63;;
53833;SDS011;39735;51.432;5.482;2023-02-28T06:53:14;10.63;;;5.05;;
53833;SDS011;39735;51.432;5.482;2023-02-28T06:55:39;17.63;;;6.28;;
53833;SDS011;39735;51.432;5.482;2023-02-28T06:58:05;13.00;;;5.65;;
53833;SDS011;39735;51.432;5.482;2023-02-28T07:00:42;5.68;;;5.18;;
53833;SDS011;39735;51.432;5.482;2023-02-28T07:03:09;10.32;;;5.43;;
53833;SDS011;39735;51.432;5.482;2023-02-28T07:05:35;11.20;;;5.72;;
53833;SDS011;39735;51.432;5.482;2023-02-28T07:08:03;15.70;;;4.53;;
53833;SDS011;39735;51.432;5.482;2023-02-28T07:10:29;15.30;;;6.32;;
53833;SDS011;39735;51.432;5.482;2023-02-28T07:12:54;11.13;;;6.93;;
53833;SDS011;39735;51.432;5.482;2023-02-28T07:15:20;17.38;;;6.03;;
53833;SDS011;39735;51.432;5.482;2023-02-28T07:17:45;8.70;;;5.80;;
53833;SDS011;39735;51.432;5.482;2023-02-28T07:20:11;9.75;;;6.28;;
53833;SDS011;39735;51.432;5.482;2023-02-28T07:22:36;10.90;;;6.53;;
53833;SDS011;39735;51.432;5.482;2023-02-28T07:25:03;8.52;;;6.68;;
53833;SDS011;39735;51.432;5.482;2023-02-28T07:27:29;10.90;;;6.10;;
53833;SDS011;39735;51.432;5.482;2023-02-28T07:29:55;8.23;;;5.65;;
53833;SDS011;39735;51.432;5.482;2023-02-28T07:32:21;6.93;;;4.95;;
53833;SDS011;39735;51.432;5.482;2023-02-28T07:34:47;14.20;;;4.35;;
53833;SDS011;39735;51.432;5.482;2023-02-28T07:37:13;16.35;;;4.82;;
53833;SDS011;39735;51.432;5.482;2023-02-28T07:39:39;5.97;;;4.57;;
53833;SDS011;39735;51.432;5.482;2023-02-28T07:42:07;7.47;;;3.63;;
53833;SDS011;39735;51.432;5.482;2023-02-28T07:44:35;8.75;;;5.03;;
53833;SDS011;39735;51.432;5.482;2023-02-28T07:47:05;9.40;;;3.33;;
53833;SDS011;39735;51.432;5.482;2023-02-28T07:49:34;9.45;;;3.67;;
53833;SDS011;39735;51.432;5.482;2023-02-28T07:52:00;17.48;;;4.25;;
53833;SDS011;39735;51.432;5.482;2023-02-28T07:54:26;6.70;;;3.65;;
53833;SDS011;39735;51.432;5.482;2023-02-28T07:56:51;14.32;;;4.00;;
53833;SDS011;39735;51.432;5.482;2023-02-28T07:59:17;10.35;;;5.03;;
53833;SDS011;39735;51.432;5.482;2023-02-28T08:01:42;10.00;;;4.65;;
53833;SDS011;39735;51.432;5.482;2023-02-28T08:04:09;32.90;;;6.43;;
53833;SDS011;39735;51.432;5.482;2023-02-28T08:06:35;12.60;;;3.90;;
53833;SDS011;39735;51.432;5.482;2023-02-28T08:09:00;10.02;;;4.80;;
53833;SDS011;39735;51.432;5.482;2023-02-28T08:11:25;5.53;;;3.85;;
53833;SDS011;39735;51.432;5.482;2023-02-28T08:13:51;3.88;;;2.97;;
53833;SDS011;39735;51.432;5.482;2023-02-28T08:16:16;9.90;;;3.30;;
53833;SDS011;39735;51.432;5.482;2023-02-28T08:18:46;7.43;;;3.60;;
53833;SDS011;39735;51.432;5.482;2023-02-28T08:21:12;10.15;;;4.13;;
53833;SDS011;39735;51.432;5.482;2023-02-28T08:23:37;5.43;;;4.15;;
53833;SDS011;39735;51.432;5.482;2023-02-28T08:26:03;12.32;;;3.25;;
53833;SDS011;39735;51.432;5.482;2023-02-28T08:28:30;3.92;;;2.95;;
53833;SDS011;39735;51.432;5.482;2023-02-28T08:30:55;6.60;;;3.03;;
53833;SDS011;39735;51.432;5.482;2023-02-28T08:33:21;9.82;;;3.55;;
53833;SDS011;39735;51.432;5.482;2023-02-28T08:35:47;4.93;;;2.65;;
53833;SDS011;39735;51.432;5.482;2023-02-28T08:38:13;9.77;;;2.80;;
53833;SDS011;39735;51.432;5.482;2023-02-28T08:40:38;9.88;;;3.97;;
53833;SDS011;39735;51.432;5.482;2023-02-28T08:43:03;3.78;;;2.80;;
53833;SDS011;39735;51.432;5.482;2023-02-28T08:45:29;2.70;;;2.58;;
53833;SDS011;39735;51.432;5.482;2023-02-28T08:47:54;6.45;;;2.65;;
53833;SDS011;39735;51.432;5.482;2023-02-28T08:50:20;9.45;;;3.80;;
53833;SDS011;39735;51.432;5.482;2023-02-28T08:52:46;3.92;;;3.05;;
53833;SDS011;39735;51.432;5.482;2023-02-28T08:55:11;11.27;;;3.00;;
53833;SDS011;39735;51.432;5.482;2023-02-28T08:57:37;13.18;;;3.58;;
53833;SDS011;39735;51.432;5.482;2023-02-28T09:00:03;3.90;;;3.45;;
53833;SDS011;39735;51.432;5.482;2023-02-28T09:02:29;5.25;;;3.28;;
53833;SDS011;39735;51.432;5.482;2023-02-28T09:04:56;16.90;;;4.22;;
53833;SDS011;39735;51.432;5.482;2023-02-28T09:07:21;4.78;;;2.75;;
53833;SDS011;39735;51.432;5.482;2023-02-28T09:09:46;20.05;;;3.05;;
53833;SDS011;39735;51.432;5.482;2023-02-28T09:12:23;3.72;;;2.42;;
53833;SDS011;39735;51.432;5.482;2023-02-28T09:14:49;7.45;;;3.40;;
53833;SDS011;39735;51.432;5.482;2023-02-28T09:17:15;9.85;;;3.25;;
53833;SDS011;39735;51.432;5.482;2023-02-28T09:19:40;7.82;;;2.45;;
53833;SDS011;39735;51.432;5.482;2023-02-28T09:22:06;4.88;;;2.30;;
53833;SDS011;39735;51.432;5.482;2023-02-28T09:24:31;2.13;;;1.85;;
53833;SDS011;39735;51.432;5.482;2023-02-28T09:26:57;3.92;;;2.65;;
53833;SDS011;39735;51.432;5.482;2023-02-28T09:29:22;4.15;;;1.92;;
53833;SDS011;39735;51.432;5.482;2023-02-28T09:31:48;2.92;;;1.70;;
53833;SDS011;39735;51.432;5.482;2023-02-28T09:34:13;2.33;;;1.90;;
53833;SDS011;39735;51.432;5.482;2023-02-28T09:36:38;2.67;;;2.47;;
53833;SDS011;39735;51.432;5.482;2023-02-28T09:39:04;2.78;;;1.88;;
53833;SDS011;39735;51.432;5.482;2023-02-28T09:41:32;2.20;;;2.10;;
53833;SDS011;39735;51.432;5.482;2023-02-28T09:44:05;4.90;;;1.75;;
53833;SDS011;39735;51.432;5.482;2023-02-28T09:46:34;6.95;;;2.53;;
53833;SDS011;39735;51.432;5.482;2023-02-28T09:49:06;1.45;;;1.33;;
53833;SDS011;39735;51.432;5.482;2023-02-28T09:54:30;4.97;;;2.03;;
53833;SDS011;39735;51.432;5.482;2023-02-28T09:56:59;7.43;;;1.73;;
53833;SDS011;39735;51.432;5.482;2023-02-28T10:05:15;3.38;;;2.30;;
53833;SDS011;39735;51.432;5.482;2023-02-28T10:08:02;2.20;;;2.03;;
53833;SDS011;39735;51.432;5.482;2023-02-28T10:10:53;4.70;;;1.40;;
53833;SDS011;39735;51.432;5.482;2023-02-28T10:13:26;1.83;;;1.73;;
53833;SDS011;39735;51.432;5.482;2023-02-28T10:15:56;3.70;;;1.95;;
53833;SDS011;39735;51.432;5.482;2023-02-28T10:18:26;2.88;;;1.77;;
53833;SDS011;39735;51.432;5.482;2023-02-28T10:20:53;3.55;;;2.00;;
53833;SDS011;39735;51.432;5.482;2023-02-28T10:23:38;1.23;;;1.17;;
53833;SDS011;39735;51.432;5.482;2023-02-28T10:26:14;6.00;;;2.03;;
53833;SDS011;39735;51.432;5.482;2023-02-28T10:28:42;6.78;;;2.80;;
53833;SDS011;39735;51.432;5.482;2023-02-28T10:31:18;2.47;;;1.58;;
53833;SDS011;39735;51.432;5.482;2023-02-28T10:33:44;4.32;;;2.45;;
53833;SDS011;39735;51.432;5.482;2023-02-28T10:36:17;1.85;;;1.75;;
53833;SDS011;39735;51.432;5.482;2023-02-28T10:38:45;1.77;;;1.55;;
53833;SDS011;39735;51.432;5.482;2023-02-28T10:41:12;4.28;;;2.22;;
53833;SDS011;39735;51.432;5.482;2023-02-28T10:43:41;8.30;;;2.22;;
53833;SDS011;39735;51.432;5.482;2023-02-28T10:48:40;7.85;;;1.88;;
53833;SDS011;39735;51.432;5.482;2023-02-28T10:51:11;4.15;;;2.13;;
53833;SDS011;39735;51.432;5.482;2023-02-28T10:53:48;3.55;;;2.33;;
53833;SDS011;39735;51.432;5.482;2023-02-28T10:56:22;1.63;;;1.63;;
53833;SDS011;39735;51.432;5.482;2023-02-28T10:58:56;1.43;;;1.33;;
53833;SDS011;39735;51.432;5.482;2023-02-28T11:03:57;2.85;;;1.75;;
53833;SDS011;39735;51.432;5.482;2023-02-28T11:06:25;7.43;;;3.38;;
53833;SDS011;39735;51.432;5.482;2023-02-28T11:08:55;8.55;;;1.98;;
53833;SDS011;39735;51.432;5.482;2023-02-28T11:11:22;1.70;;;1.60;;
53833;SDS011;39735;51.432;5.482;2023-02-28T11:13:50;3.45;;;2.00;;
53833;SDS011;39735;51.432;5.482;2023-02-28T11:16:17;3.13;;;2.33;;
53833;SDS011;39735;51.432;5.482;2023-02-28T11:18:50;17.08;;;4.65;;
53833;SDS011;39735;51.432;5.482;2023-02-28T11:21:21;29.83;;;4.80;;
53833;SDS011;39735;51.432;5.482;2023-02-28T11:23:49;4.00;;;1.83;;
53833;SDS011;39735;51.432;5.482;2023-02-28T11:26:16;4.13;;;2.47;;
53833;SDS011;39735;51.432;5.482;2023-02-28T11:28:41;3.22;;;2.05;;
53833;SDS011;39735;51.432;5.482;2023-02-28T11:34:39;7.32;;;3.80;;
53833;SDS011;39735;51.432;5.482;2023-02-28T11:36:50;4.03;;;2.08;;
53833;SDS011;39735;51.432;5.482;2023-02-28T11:39:16;2.35;;;2.00;;
53833;SDS011;39735;51.432;5.482;2023-02-28T11:58:22;4.05;;;2.25;;
53833;SDS011;39735;51.432;5.482;2023-02-28T12:00:58;10.68;;;2.30;;
53833;SDS011;39735;51.432;5.482;2023-02-28T12:06:28;4.15;;;2.17;;
53833;SDS011;39735;51.432;5.482;2023-02-28T12:09:36;5.85;;;2.90;;
53833;SDS011;39735;51.432;5.482;2023-02-28T12:17:23;4.82;;;2.30;;
53833;SDS011;39735;51.432;5.482;2023-02-28T12:22:47;4.13;;;3.13;;
53833;SDS011;39735;51.432;5.482;2023-02-28T12:25:20;8.00;;;3.70;;
53833;SDS011;39735;51.432;5.482;2023-02-28T12:27:48;4.80;;;2.50;;
53833;SDS011;39735;51.432;5.482;2023-02-28T12:30:24;4.25;;;1.85;;
53833;SDS011;39735;51.432;5.482;2023-02-28T12:32:56;2.60;;;2.40;;
53833;SDS011;39735;51.432;5.482;2023-02-28T12:35:32;5.05;;;3.55;;
53833;SDS011;39735;51.432;5.482;2023-02-28T12:38:14;5.30;;;3.05;;
53833;SDS011;39735;51.432;5.482;2023-02-28T12:40:50;2.85;;;2.15;;
53833;SDS011;39735;51.432;5.482;2023-02-28T12:43:19;4.88;;;2.70;;
53833;SDS011;39735;51.432;5.482;2023-02-28T12:45:49;12.60;;;2.50;;
53833;SDS011;39735;51.432;5.482;2023-02-28T12:48:22;4.47;;;1.92;;
53833;SDS011;39735;51.432;5.482;2023-02-28T12:50:51;4.55;;;2.85;;
53833;SDS011;39735;51.432;5.482;2023-02-28T12:58:47;2.53;;;2.05;;
53833;SDS011;39735;51.432;5.482;2023-02-28T13:04:17;8.85;;;4.05;;
53833;SDS011;39735;51.432;5.482;2023-02-28T13:09:56;8.57;;;4.15;;
53833;SDS011;39735;51.432;5.482;2023-02-28T13:12:23;4.13;;;2.20;;
53833;SDS011;39735;51.432;5.482;2023-02-28T13:14:49;5.30;;;2.38;;
53833;SDS011;39735;51.432;5.482;2023-02-28T13:17:19;4.05;;;2.38;;
53833;SDS011;39735;51.432;5.482;2023-02-28T13:19:55;5.32;;;3.20;;
53833;SDS011;39735;51.432;5.482;2023-02-28T13:24:51;7.47;;;3.50;;
53833;SDS011;39735;51.432;5.482;2023-02-28T13:27:34;2.70;;;2.58;;
53833;SDS011;39735;51.432;5.482;2023-02-28T13:30:49;2.53;;;2.30;;
53833;SDS011;39735;51.432;5.482;2023-02-28T13:36:07;3.38;;;2.75;;
53833;SDS011;39735;51.432;5.482;2023-02-28T13:57:36;9.63;;;2.47;;
53833;SDS011;39735;51.432;5.482;2023-02-28T14:00:14;3.78;;;1.83;;
53833;SDS011;39735;51.432;5.482;2023-02-28T14:05:32;3.13;;;2.95;;
53833;SDS011;39735;51.432;5.482;2023-02-28T14:07:59;3.03;;;2.17;;
53833;SDS011;39735;51.432;5.482;2023-02-28T14:10:49;4.88;;;2.65;;
53833;SDS011;39735;51.432;5.482;2023-02-28T14:15:57;8.18;;;3.28;;
53833;SDS011;39735;51.432;5.482;2023-02-28T14:18:25;2.17;;;1.98;;
53833;SDS011;39735;51.432;5.482;2023-02-28T14:20:54;3.40;;;3.13;;
53833;SDS011;39735;51.432;5.482;2023-02-28T14:23:35;2.83;;;2.38;;
53833;SDS011;39735;51.432;5.482;2023-02-28T14:26:14;5.38;;;3.05;;
53833;SDS011;39735;51.432;5.482;2023-02-28T14:29:08;5.03;;;2.22;;
53833;SDS011;39735;51.432;5.482;2023-02-28T14:31:44;2.97;;;2.78;;
53833;SDS011;39735;51.432;5.482;2023-02-28T14:34:26;3.67;;;2.88;;
53833;SDS011;39735;51.432;5.482;2023-02-28T14:36:55;2.80;;;1.90;;
53833;SDS011;39735;51.432;5.482;2023-02-28T14:39:24;2.47;;;2.25;;
53833;SDS011;39735;51.432;5.482;2023-02-28T14:41:50;3.10;;;2.78;;
53833;SDS011;39735;51.432;5.482;2023-02-28T14:44:26;15.13;;;4.10;;
53833;SDS011;39735;51.432;5.482;2023-02-28T14:46:56;2.90;;;2.72;;
53833;SDS011;39735;51.432;5.482;2023-02-28T14:49:26;6.10;;;2.85;;
53833;SDS011;39735;51.432;5.482;2023-02-28T14:57:03;13.05;;;2.60;;
53833;SDS011;39735;51.432;5.482;2023-02-28T14:59:34;5.65;;;2.60;;
53833;SDS011;39735;51.432;5.482;2023-02-28T15:02:23;11.10;;;4.30;;
53833;SDS011;39735;51.432;5.482;2023-02-28T15:04:53;13.35;;;3.90;;
53833;SDS011;39735;51.432;5.482;2023-02-28T15:07:46;8.68;;;2.88;;
53833;SDS011;39735;51.432;5.482;2023-02-28T15:10:25;5.35;;;3.80;;
53833;SDS011;39735;51.432;5.482;2023-02-28T15:12:58;3.70;;;2.80;;
53833;SDS011;39735;51.432;5.482;2023-02-28T15:15:44;2.75;;;2.58;;
53833;SDS011;39735;51.432;5.482;2023-02-28T15:21:18;4.50;;;3.30;;
53833;SDS011;39735;51.432;5.482;2023-02-28T15:23:48;6.68;;;2.63;;
53833;SDS011;39735;51.432;5.482;2023-02-28T15:26:16;2.65;;;2.50;;
53833;SDS011;39735;51.432;5.482;2023-02-28T15:28:42;2.83;;;1.85;;
53833;SDS011;39735;51.432;5.482;2023-02-28T15:31:32;3.63;;;2.10;;
53833;SDS011;39735;51.432;5.482;2023-02-28T15:34:04;2.95;;;2.20;;
53833;SDS011;39735;51.432;5.482;2023-02-28T15:36:30;4.13;;;2.90;;
53833;SDS011;39735;51.432;5.482;2023-02-28T15:38:58;5.50;;;2.60;;
53833;SDS011;39735;51.432;5.482;2023-02-28T15:41:35;10.57;;;2.38;;
53833;SDS011;39735;51.432;5.482;2023-02-28T15:44:15;6.28;;;3.53;;
53833;SDS011;39735;51.432;5.482;2023-02-28T15:47:01;6.82;;;3.63;;
53833;SDS011;39735;51.432;5.482;2023-02-28T15:49:28;4.97;;;2.80;;
53833;SDS011;39735;51.432;5.482;2023-02-28T15:51:55;3.15;;;2.33;;
53833;SDS011;39735;51.432;5.482;2023-02-28T15:54:33;3.40;;;2.20;;
53833;SDS011;39735;51.432;5.482;2023-02-28T15:57:06;3.05;;;2.28;;
53833;SDS011;39735;51.432;5.482;2023-02-28T15:59:35;4.57;;;2.95;;
53833;SDS011;39735;51.432;5.482;2023-02-28T16:02:25;4.22;;;3.83;;
53833;SDS011;39735;51.432;5.482;2023-02-28T16:07:26;7.68;;;3.90;;
53833;SDS011;39735;51.432;5.482;2023-02-28T16:09:51;3.15;;;2.95;;
53833;SDS011;39735;51.432;5.482;2023-02-28T16:12:17;4.82;;;2.33;;
53833;SDS011;39735;51.432;5.482;2023-02-28T16:14:44;2.95;;;2.70;;
53833;SDS011;39735;51.432;5.482;2023-02-28T16:17:20;4.80;;;3.03;;
53833;SDS011;39735;51.432;5.482;2023-02-28T16:19:47;4.80;;;4.22;;
53833;SDS011;39735;51.432;5.482;2023-02-28T16:22:12;12.30;;;4.68;;
53833;SDS011;39735;51.432;5.482;2023-02-28T16:24:38;12.70;;;7.63;;
53833;SDS011;39735;51.432;5.482;2023-02-28T16:27:05;3.78;;;3.47;;
53833;SDS011;39735;51.432;5.482;2023-02-28T16:29:34;25.80;;;3.70;;
53833;SDS011;39735;51.432;5.482;2023-02-28T16:32:00;3.03;;;2.83;;
53833;SDS011;39735;51.432;5.482;2023-02-28T16:34:27;13.20;;;3.55;;
53833;SDS011;39735;51.432;5.482;2023-02-28T16:36:53;4.38;;;3.80;;
53833;SDS011;39735;51.432;5.482;2023-02-28T16:39:18;5.82;;;3.40;;
53833;SDS011;39735;51.432;5.482;2023-02-28T16:41:47;5.15;;;2.95;;
53833;SDS011;39735;51.432;5.482;2023-02-28T16:44:29;6.53;;;5.00;;
53833;SDS011;39735;51.432;5.482;2023-02-28T16:46:57;6.03;;;2.78;;
53833;SDS011;39735;51.432;5.482;2023-02-28T16:49:24;4.40;;;3.13;;
53833;SDS011;39735;51.432;5.482;2023-02-28T16:51:50;5.60;;;4.80;;
53833;SDS011;39735;51.432;5.482;2023-02-28T16:54:15;2.70;;;2.47;;
53833;SDS011;39735;51.432;5.482;2023-02-28T16:56:43;8.30;;;4.68;;